Time;durP1;ratioP1;P1;durP2;ratioP2;P2;SDS_P1;SDS_P2;PMS_P1;PMS_P2;Temp;Humidity;BMP_temperature;BMP_pressure;BME280_temperature;BME280_humidity;BME280_pressure;Samples;Min_cycle;Max_cycle;Signal;HPM_P1;HPM_P2
2023/06/02 00:01:05;;;;;;;2.20;1.37;;;13.70;80.10;13.70;100608.00;;;;4989234;28;122363;-67
2023/06/02 00:03:37;;;;;;;3.63;2.43;;;13.70;80.70;13.60;100600.00;;;;4985692;28;110180;-68
2023/06/02 00:06:05;;;;;;;3.93;2.17;;;13.60;81.00;13.60;100610.00;;;;4986440;28;93039;-68
2023/06/02 00:08:32;;;;;;;3.40;1.60;;;13.60;81.40;13.60;100601.00;;;;4986271;28;93305;-68
2023/06/02 00:11:00;;;;;;;3.50;2.10;;;13.60;81.90;13.50;100603.00;;;;4985728;28;95859;-68
2023/06/02 00:13:26;;;;;;;1.93;1.67;;;13.50;82.20;13.50;100609.00;;;;4993592;28;93097;-68
2023/06/02 00:15:52;;;;;;;5.53;1.33;;;13.50;82.60;13.40;100613.00;;;;4988684;28;96001;-68
2023/06/02 00:18:20;;;;;;;2.67;2.10;;;13.40;82.90;13.40;100620.00;;;;4988384;28;115816;-68
2023/06/02 00:20:46;;;;;;;1.77;1.60;;;13.40;83.50;13.40;100617.00;;;;4984260;28;93584;-69
2023/06/02 00:23:12;;;;;;;3.73;1.70;;;13.40;83.80;13.40;100626.00;;;;4988653;28;93749;-69
2023/06/02 00:25:39;;;;;;;2.73;1.47;;;13.40;84.00;13.40;100630.00;;;;4983515;28;92994;-69
2023/06/02 00:28:05;;;;;;;1.80;1.40;;;13.30;84.60;13.30;100630.00;;;;4991712;28;93470;-69
2023/06/02 00:30:31;;;;;;;1.43;1.33;;;13.30;84.90;13.30;100626.00;;;;4988841;28;94757;-68
2023/06/02 00:32:57;;;;;;;1.33;1.10;;;13.30;85.20;13.20;100617.00;;;;4989718;28;92883;-69
2023/06/02 00:35:22;;;;;;;2.67;1.33;;;13.20;85.40;13.20;100625.00;;;;4990624;28;109832;-69
2023/06/02 00:37:48;;;;;;;1.50;1.37;;;13.20;85.80;13.10;100616.00;;;;4996134;28;123931;-69
2023/06/02 00:40:16;;;;;;;1.40;1.30;;;13.20;86.20;13.10;100624.00;;;;4983421;28;124870;-69
2023/06/02 00:42:42;;;;;;;1.57;1.27;;;13.10;86.60;13.00;100620.00;;;;4986870;28;109683;-69
2023/06/02 00:45:09;;;;;;;3.07;1.30;;;13.10;86.90;13.00;100622.00;;;;4985319;28;108237;-69
2023/06/02 00:47:34;;;;;;;1.33;1.23;;;13.00;87.50;13.00;100619.00;;;;4983166;27;115583;-69
2023/06/02 00:50:00;;;;;;;3.63;1.30;;;13.00;87.90;13.00;100623.00;;;;4987277;28;123433;-70
2023/06/02 00:52:27;;;;;;;1.60;1.20;;;13.00;88.20;12.90;100623.00;;;;4993349;28;111626;-70
2023/06/02 00:54:53;;;;;;;1.50;1.20;;;12.90;88.60;12.90;100631.00;;;;4990889;28;108682;-69
2023/06/02 00:57:21;;;;;;;2.33;1.93;;;12.90;89.20;12.90;100634.00;;;;4992687;28;96556;-69
2023/06/02 00:59:47;;;;;;;4.23;1.43;;;12.90;89.40;12.80;100623.00;;;;4989695;28;94074;-70
2023/06/02 01:02:13;;;;;;;3.03;1.90;;;12.80;89.80;12.80;100636.00;;;;4989613;28;92905;-69
2023/06/02 01:04:46;;;;;;;2.10;1.23;;;12.80;90.00;12.70;100623.00;;;;4975384;28;92069;-71
2023/06/02 01:07:13;;;;;;;0.90;0.90;;;12.80;90.20;12.70;100621.00;;;;4990518;28;93384;-70
2023/06/02 01:09:40;;;;;;;5.70;1.00;;;12.70;90.40;12.70;100621.00;;;;4970892;28;93054;-70
2023/06/02 01:12:07;;;;;;;4.57;1.73;;;12.70;90.80;12.60;100640.00;;;;4991297;28;108597;-69
2023/06/02 01:14:32;;;;;;;2.30;1.73;;;12.60;90.90;12.60;100647.00;;;;4975804;28;97762;-69
2023/06/02 01:16:59;;;;;;;1.97;1.80;;;12.60;91.00;12.50;100641.00;;;;4971813;28;123350;-70
2023/06/02 01:19:26;;;;;;;4.60;1.30;;;12.50;91.20;12.50;100641.00;;;;4977465;28;93257;-69
2023/06/02 01:22:00;;;;;;;3.47;1.63;;;12.50;91.30;12.40;100641.00;;;;4992635;28;92995;-69
2023/06/02 01:24:39;;;;;;;2.53;1.63;;;12.50;91.50;12.40;100647.00;;;;4977215;28;92811;-69
2023/06/02 01:27:12;;;;;;;2.20;1.93;;;12.40;91.70;12.30;100650.00;;;;4992887;28;93757;-69
2023/06/02 01:29:38;;;;;;;3.03;2.73;;;12.40;91.90;12.30;100649.00;;;;4964036;28;95233;-69
2023/06/02 01:32:36;;;;;;;1.53;1.40;;;12.30;92.10;12.20;100642.00;;;;4971477;28;93236;-69
2023/06/02 01:35:09;;;;;;;1.53;1.43;;;12.30;92.30;12.20;100641.00;;;;4990710;28;98841;-69
2023/06/02 01:37:46;;;;;;;2.67;1.60;;;12.20;92.50;12.10;100646.00;;;;4988969;28;94104;-69
2023/06/02 01:40:13;;;;;;;4.40;1.87;;;12.20;92.60;12.20;100649.00;;;;4968174;28;94061;-69
2023/06/02 01:42:39;;;;;;;3.47;1.33;;;12.20;92.80;12.20;100647.00;;;;4993261;28;92876;-69
2023/06/02 01:45:07;;;;;;;2.47;1.40;;;12.20;92.90;12.20;100650.00;;;;4990505;28;92967;-69
2023/06/02 01:47:32;;;;;;;2.87;1.97;;;12.20;93.10;12.20;100640.00;;;;4971203;28;93388;-69
2023/06/02 01:49:58;;;;;;;2.70;2.10;;;12.20;93.30;12.20;100642.00;;;;4985584;28;124540;-69
2023/06/02 01:52:24;;;;;;;2.53;1.97;;;12.20;93.30;12.10;100638.00;;;;4977014;28;109009;-69
2023/06/02 01:54:51;;;;;;;3.40;2.57;;;12.20;93.50;12.10;100642.00;;;;4989972;28;92092;-70
2023/06/02 01:57:16;;;;;;;2.47;2.00;;;12.10;93.60;12.10;100646.00;;;;4990128;28;93136;-69
2023/06/02 01:59:42;;;;;;;2.90;2.50;;;12.10;93.70;12.00;100639.00;;;;4983923;28;93651;-70
2023/06/02 02:02:08;;;;;;;3.77;2.27;;;12.10;93.90;12.00;100640.00;;;;4985521;28;110312;-69
2023/06/02 02:04:34;;;;;;;4.50;2.70;;;12.00;93.90;12.00;100641.00;;;;4983773;28;107890;-69
2023/06/02 02:07:01;;;;;;;2.77;2.23;;;12.00;94.10;11.90;100642.00;;;;4987435;28;94035;-69
2023/06/02 02:09:27;;;;;;;2.87;2.00;;;12.00;94.30;11.90;100646.00;;;;4988457;28;92841;-69
2023/06/02 02:11:53;;;;;;;3.23;1.87;;;12.00;94.40;11.90;100639.00;;;;4986032;28;92899;-69
2023/06/02 02:14:19;;;;;;;3.23;2.03;;;11.90;94.60;11.90;100646.00;;;;4987366;28;92951;-69
2023/06/02 02:16:49;;;;;;;3.40;2.37;;;11.90;94.60;11.90;100640.00;;;;4985414;28;93237;-70
2023/06/02 02:19:16;;;;;;;2.93;2.43;;;11.90;94.80;11.90;100646.00;;;;4985452;28;94417;-70
2023/06/02 02:21:42;;;;;;;4.57;2.60;;;11.90;94.90;12.00;100638.00;;;;4988086;28;93353;-69
2023/06/02 02:24:08;;;;;;;5.67;2.70;;;11.90;95.00;12.00;100648.00;;;;4990159;28;109197;-69
2023/06/02 02:26:35;;;;;;;2.20;1.53;;;12.00;95.10;12.00;100650.00;;;;4987780;28;94282;-70
2023/06/02 02:29:01;;;;;;;3.50;1.93;;;12.00;95.10;12.00;100654.00;;;;4985457;28;94337;-69
2023/06/02 02:31:27;;;;;;;4.83;2.37;;;12.00;95.30;12.00;100646.00;;;;4990108;28;103337;-69
2023/06/02 02:33:53;;;;;;;2.30;2.10;;;12.00;95.30;12.00;100654.00;;;;4989217;28;92981;-69
2023/06/02 02:36:19;;;;;;;6.47;2.27;;;12.00;95.40;12.00;100648.00;;;;4986892;28;113741;-69
2023/06/02 02:38:45;;;;;;;5.13;2.00;;;12.00;95.50;12.00;100652.00;;;;4986177;28;123163;-69
2023/06/02 02:41:11;;;;;;;4.23;2.60;;;12.00;95.50;12.00;100646.00;;;;4988698;28;93843;-69
2023/06/02 02:43:36;;;;;;;6.30;2.33;;;12.00;95.70;12.00;100655.00;;;;4989134;28;108268;-69
2023/06/02 02:46:03;;;;;;;2.30;2.10;;;12.00;95.80;12.00;100658.00;;;;4985157;28;121681;-69
2023/06/02 02:48:29;;;;;;;1.37;1.27;;;12.00;95.90;12.00;100667.00;;;;4986310;28;93552;-69
2023/06/02 02:50:55;;;;;;;3.20;2.07;;;12.10;96.00;12.00;100661.00;;;;4966382;28;110418;-69
2023/06/02 02:53:21;;;;;;;3.17;1.80;;;12.10;96.20;12.10;100662.00;;;;4983795;28;94413;-69
2023/06/02 02:55:50;;;;;;;3.20;2.30;;;12.00;96.30;12.10;100665.00;;;;4989802;28;93830;-69
2023/06/02 02:58:16;;;;;;;2.47;1.70;;;12.10;96.30;12.10;100655.00;;;;4988733;28;93627;-69
2023/06/02 03:00:41;;;;;;;3.10;1.70;;;12.10;96.40;12.10;100671.00;;;;4991108;28;99407;-69
2023/06/02 03:03:07;;;;;;;2.80;1.67;;;12.10;96.50;12.10;100673.00;;;;4990697;27;107798;-69
2023/06/02 03:05:34;;;;;;;1.57;1.47;;;12.10;96.60;12.10;100670.00;;;;4989728;28;121939;-68
2023/06/02 03:08:02;;;;;;;6.20;1.73;;;12.10;96.60;12.10;100673.00;;;;4995801;28;93941;-68
2023/06/02 03:10:27;;;;;;;2.57;2.10;;;12.10;96.60;12.10;100679.00;;;;4991943;28;94465;-69
2023/06/02 03:12:53;;;;;;;5.17;1.37;;;12.10;96.70;12.10;100680.00;;;;4994886;28;108651;-68
2023/06/02 03:15:19;;;;;;;2.37;1.43;;;12.10;96.80;12.10;100682.00;;;;4991242;28;123696;-68
2023/06/02 03:17:45;;;;;;;4.03;2.40;;;12.10;96.90;12.10;100680.00;;;;4989467;28;93622;-68
2023/06/02 03:20:11;;;;;;;2.00;1.27;;;12.10;97.10;12.10;100688.00;;;;4986646;28;93154;-68
2023/06/02 03:22:37;;;;;;;4.33;1.90;;;12.10;97.10;12.10;100690.00;;;;4968754;28;92927;-68
2023/06/02 03:25:05;;;;;;;1.20;1.10;;;12.10;97.30;12.10;100692.00;;;;4987215;28;93920;-67
2023/06/02 03:27:30;;;;;;;5.70;1.33;;;12.10;97.30;12.10;100689.00;;;;4987470;28;93736;-67
2023/06/02 03:29:56;;;;;;;2.00;1.40;;;12.10;97.40;12.10;100687.00;;;;4985957;28;110709;-68
2023/06/02 03:32:22;;;;;;;2.63;1.07;;;12.10;97.40;12.20;100696.00;;;;4983394;28;108344;-66
2023/06/02 03:34:48;;;;;;;2.50;1.67;;;12.10;97.50;12.20;100696.00;;;;4975484;27;121027;-66
2023/06/02 03:37:14;;;;;;;3.77;1.63;;;12.20;97.60;12.20;100695.00;;;;4999420;27;92836;-67
2023/06/02 03:39:42;;;;;;;1.80;1.53;;;12.20;97.60;12.30;100695.00;;;;4992382;27;108924;-68
2023/06/02 03:42:08;;;;;;;6.27;1.87;;;12.30;98.20;12.30;100696.00;;;;5003229;27;108336;-67
2023/06/02 03:44:34;;;;;;;2.40;1.43;;;12.30;98.30;12.30;100705.00;;;;5005707;27;122508;-68
2023/06/02 03:46:59;;;;;;;3.13;1.13;;;12.30;98.20;12.30;100703.00;;;;5002865;27;122575;-69
2023/06/02 03:49:27;;;;;;;1.23;1.07;;;12.30;98.00;12.40;100707.00;;;;5006186;27;111522;-67
2023/06/02 03:51:53;;;;;;;2.73;1.30;;;12.40;98.10;12.40;100710.00;;;;5008750;27;93109;-67
2023/06/02 03:54:19;;;;;;;3.13;1.40;;;12.40;98.40;12.50;100710.00;;;;5006886;27;121554;-68
2023/06/02 03:56:44;;;;;;;2.43;1.50;;;12.40;98.00;12.60;100722.00;;;;4993988;27;92707;-68
2023/06/02 03:59:10;;;;;;;2.13;1.90;;;12.50;98.00;12.60;100715.00;;;;4979103;27;111470;-68
2023/06/02 04:01:36;;;;;;;5.53;1.93;;;12.50;97.80;12.70;100720.00;;;;5001231;27;94093;-68
2023/06/02 04:04:01;;;;;;;2.23;1.30;;;12.60;97.80;12.70;100709.00;;;;5003075;27;93836;-69
2023/06/02 04:06:28;;;;;;;1.77;1.33;;;12.60;97.70;12.70;100722.00;;;;5004171;27;111075;-67
2023/06/02 04:08:54;;;;;;;4.90;1.53;;;12.70;97.70;12.80;100723.00;;;;5005639;27;92957;-67
2023/06/02 04:11:23;;;;;;;4.47;1.43;;;12.70;97.70;12.80;100724.00;;;;5006240;27;93716;-69
2023/06/02 04:13:49;;;;;;;1.13;1.03;;;12.70;97.60;12.80;100725.00;;;;5007451;27;94291;-68
2023/06/02 04:16:15;;;;;;;2.83;1.77;;;12.70;97.50;12.80;100734.00;;;;5006411;27;94083;-69
2023/06/02 04:18:41;;;;;;;10.17;2.50;;;12.80;97.50;12.90;100735.00;;;;5011144;27;92856;-68
2023/06/02 04:21:07;;;;;;;1.93;1.40;;;12.80;97.50;12.90;100741.00;;;;5009209;27;92575;-67
2023/06/02 04:23:32;;;;;;;2.87;2.00;;;12.90;97.40;13.00;100749.00;;;;5005625;27;121616;-69
2023/06/02 04:25:58;;;;;;;4.60;0.97;;;12.90;97.30;13.10;100750.00;;;;5008879;27;110918;-69
2023/06/02 04:28:24;;;;;;;5.27;1.90;;;13.00;97.10;13.10;100743.00;;;;5013177;27;93694;-68
2023/06/02 04:30:54;;;;;;;9.50;1.87;;;13.10;97.10;13.20;100741.00;;;;5009770;27;103190;-67
2023/06/02 04:33:20;;;;;;;4.63;2.20;;;13.10;96.90;13.30;100749.00;;;;4991671;27;93990;-67
2023/06/02 04:35:46;;;;;;;6.97;1.53;;;13.10;96.70;13.30;100750.00;;;;5007585;27;115333;-67
2023/06/02 04:38:12;;;;;;;5.60;1.63;;;13.20;96.50;13.40;100741.00;;;;4995781;27;109852;-68
2023/06/02 04:40:38;;;;;;;3.73;1.60;;;13.30;96.40;13.40;100752.00;;;;5012248;27;93010;-68
2023/06/02 04:43:05;;;;;;;3.67;1.40;;;13.40;96.30;13.50;100747.00;;;;5008429;27;93354;-66
2023/06/02 04:45:31;;;;;;;3.30;2.07;;;13.40;96.40;13.50;100746.00;;;;5005704;27;93037;-69
2023/06/02 04:47:57;;;;;;;2.30;1.37;;;13.50;96.00;13.60;100760.00;;;;5010358;27;93420;-67
2023/06/02 04:50:23;;;;;;;1.43;1.33;;;13.50;95.80;13.70;100752.00;;;;5004878;27;96123;-67
2023/06/02 04:52:49;;;;;;;3.17;1.67;;;13.50;95.70;13.70;100754.00;;;;5008656;27;122754;-67
2023/06/02 04:55:14;;;;;;;2.50;1.87;;;13.60;95.50;13.70;100760.00;;;;5008534;27;123010;-66
2023/06/02 04:57:41;;;;;;;4.40;1.90;;;13.70;95.30;13.70;100759.00;;;;5013727;27;93114;-68
2023/06/02 05:00:08;;;;;;;2.80;2.10;;;13.70;95.20;13.80;100764.00;;;;5014186;27;92919;-69
2023/06/02 05:02:35;;;;;;;1.73;1.63;;;13.70;95.10;13.80;100756.00;;;;5008239;27;94629;-68
2023/06/02 05:05:02;;;;;;;3.37;2.40;;;13.80;95.10;13.80;100768.00;;;;4995576;27;93042;-68
2023/06/02 05:07:28;;;;;;;2.03;1.77;;;13.70;94.90;13.80;100757.00;;;;4987453;27;92935;-68
2023/06/02 05:09:54;;;;;;;1.53;1.23;;;13.70;94.80;13.90;100769.00;;;;4999925;27;92100;-68
2023/06/02 05:12:20;;;;;;;1.97;1.77;;;13.80;95.20;14.00;100764.00;;;;4988835;27;93670;-67
2023/06/02 05:14:45;;;;;;;14.20;3.27;;;13.90;95.20;14.10;100765.00;;;;5008359;27;122679;-68
2023/06/02 05:17:24;;;;;;;4.30;2.83;;;14.00;94.60;14.20;100770.00;;;;5005406;27;109897;-67
2023/06/02 05:19:53;;;;;;;3.13;1.80;;;14.10;94.50;14.30;100766.00;;;;4977146;27;93016;-68
2023/06/02 05:22:19;;;;;;;3.87;2.50;;;14.20;94.30;14.50;100770.00;;;;4987253;27;93690;-69
2023/06/02 05:24:45;;;;;;;2.03;1.70;;;14.40;94.20;14.80;100772.00;;;;4965876;28;94371;-68
2023/06/02 05:27:11;;;;;;;4.40;2.13;;;14.60;94.00;15.00;100778.00;;;;4995201;27;92969;-67
2023/06/02 05:29:37;;;;;;;1.95;1.85;;;14.80;93.50;15.10;100780.00;;;;4976310;27;93123;-68
2023/06/02 05:32:03;;;;;;;7.18;2.60;;;14.90;93.20;15.30;100780.00;;;;5005244;27;121972;-68
2023/06/02 05:34:28;;;;;;;6.97;2.53;;;15.20;93.00;15.40;100779.00;;;;5007054;27;92737;-69
2023/06/02 05:36:54;;;;;;;3.38;2.28;;;15.20;92.60;15.60;100779.00;;;;5006033;27;107659;-68
2023/06/02 05:39:20;;;;;;;4.88;2.78;;;15.40;92.30;15.70;100787.00;;;;5007375;27;93228;-68
2023/06/02 05:41:45;;;;;;;15.73;2.90;;;15.50;92.30;15.90;100778.00;;;;5003480;27;122607;-68
2023/06/02 05:44:11;;;;;;;1.75;1.60;;;15.70;91.80;16.00;100783.00;;;;5007785;27;122310;-67
2023/06/02 05:46:39;;;;;;;2.95;2.15;;;15.80;91.30;16.10;100782.00;;;;5004196;27;110462;-67
2023/06/02 05:49:05;;;;;;;3.85;2.08;;;15.90;90.90;16.10;100790.00;;;;5010514;27;92908;-69
2023/06/02 05:51:31;;;;;;;3.20;2.13;;;16.00;90.60;16.20;100785.00;;;;5009697;27;124204;-69
2023/06/02 05:53:57;;;;;;;1.85;1.70;;;16.10;90.30;16.20;100779.00;;;;5005086;27;94656;-68
2023/06/02 05:56:22;;;;;;;4.72;2.60;;;16.10;90.20;16.20;100793.00;;;;5006262;27;110080;-67
2023/06/02 05:58:48;;;;;;;6.57;1.98;;;16.10;89.70;16.30;100789.00;;;;5006282;27;108097;-69
2023/06/02 06:01:14;;;;;;;2.42;1.92;;;16.20;89.50;16.40;100796.00;;;;5009053;27;93795;-68
2023/06/02 06:03:40;;;;;;;5.80;2.05;;;16.30;89.30;16.50;100786.00;;;;5004136;27;118024;-67
2023/06/02 06:06:06;;;;;;;4.05;2.22;;;16.30;88.90;16.70;100806.00;;;;5003195;27;109807;-69
2023/06/02 06:08:31;;;;;;;12.93;2.42;;;16.50;88.40;16.80;100799.00;;;;5009183;27;92878;-69
2023/06/02 06:10:57;;;;;;;9.88;2.17;;;16.70;87.90;16.90;100794.00;;;;4994303;27;118497;-69
2023/06/02 06:13:22;;;;;;;4.45;1.88;;;16.80;87.10;17.10;100800.00;;;;5004764;27;93693;-68
2023/06/02 06:15:48;;;;;;;2.63;1.70;;;16.90;86.50;17.30;100799.00;;;;5006916;27;110731;-67
2023/06/02 06:18:14;;;;;;;3.45;2.33;;;17.10;85.70;17.40;100803.00;;;;5006411;27;107056;-68
2023/06/02 06:20:43;;;;;;;6.53;1.95;;;17.30;85.30;17.60;100816.00;;;;5005413;27;93642;-69
2023/06/02 06:23:15;;;;;;;4.35;1.95;;;17.40;84.40;17.70;100812.00;;;;4988634;27;92720;-68
2023/06/02 06:25:41;;;;;;;2.97;2.10;;;17.50;83.90;17.70;100813.00;;;;5009400;27;110898;-67
2023/06/02 06:28:06;;;;;;;3.55;1.75;;;17.60;83.10;17.70;100810.00;;;;5007067;27;110010;-69
2023/06/02 06:30:32;;;;;;;9.93;2.13;;;17.60;82.80;17.80;100808.00;;;;5008613;27;106908;-68
2023/06/02 06:32:59;;;;;;;2.85;1.80;;;17.70;82.50;17.90;100812.00;;;;5009603;27;120596;-69
2023/06/02 06:35:25;;;;;;;2.33;2.03;;;17.80;82.00;18.00;100811.00;;;;5005588;27;92938;-68
2023/06/02 06:37:51;;;;;;;2.90;1.88;;;17.80;81.60;18.00;100803.00;;;;4986483;27;93003;-68
2023/06/02 06:40:17;;;;;;;8.60;2.55;;;17.90;81.10;18.10;100800.00;;;;5005851;27;94679;-68
2023/06/02 06:42:42;;;;;;;4.22;2.20;;;18.00;80.60;18.20;100802.00;;;;5010133;27;122383;-67
2023/06/02 06:45:08;;;;;;;3.38;1.25;;;18.00;80.00;18.20;100806.00;;;;5011807;27;110330;-68
2023/06/02 06:47:34;;;;;;;5.65;1.73;;;18.10;79.70;18.30;100804.00;;;;5011770;27;92206;-68
2023/06/02 06:50:00;;;;;;;4.65;2.42;;;18.10;79.40;18.40;100808.00;;;;5004114;27;94140;-67
2023/06/02 06:52:25;;;;;;;3.28;1.95;;;18.20;79.10;18.50;100810.00;;;;5005472;27;120543;-69
2023/06/02 06:54:51;;;;;;;7.05;3.38;;;18.40;78.70;18.70;100815.00;;;;5008313;27;96459;-69
2023/06/02 06:57:18;;;;;;;3.97;1.83;;;18.50;78.40;18.90;100810.00;;;;5007458;27;108034;-68
2023/06/02 06:59:47;;;;;;;4.28;2.83;;;18.70;78.00;19.00;100814.00;;;;4986693;27;93176;-68
2023/06/02 07:02:12;;;;;;;5.20;1.92;;;18.80;78.20;19.20;100814.00;;;;5007239;27;92974;-68
2023/06/02 07:04:38;;;;;;;3.30;1.60;;;19.00;77.00;19.30;100816.00;;;;5018242;27;110794;-68
2023/06/02 07:07:04;;;;;;;4.45;2.42;;;19.10;76.20;19.50;100811.00;;;;5004088;27;109441;-68
2023/06/02 07:09:30;;;;;;;5.78;2.50;;;19.30;75.60;19.70;100816.00;;;;4993388;27;113627;-68
2023/06/02 07:11:56;;;;;;;3.15;1.50;;;19.50;74.20;19.70;100811.00;;;;5003036;27;120014;-67
2023/06/02 07:14:22;;;;;;;8.80;1.80;;;19.50;72.50;19.50;100818.00;;;;5008448;27;93457;-70
2023/06/02 07:16:52;;;;;;;1.30;1.20;;;19.40;72.40;19.40;100817.00;;;;5011619;27;108190;-67
2023/06/02 07:19:18;;;;;;;3.45;2.13;;;19.30;72.80;19.40;100814.00;;;;5003376;27;94582;-70
2023/06/02 07:21:43;;;;;;;2.20;1.15;;;19.30;72.80;19.60;100822.00;;;;5007093;27;121493;-68
2023/06/02 07:24:09;;;;;;;4.15;1.73;;;19.40;72.80;19.70;100821.00;;;;4990654;27;92845;-68
2023/06/02 07:26:35;;;;;;;4.93;1.40;;;19.50;72.50;19.80;100817.00;;;;5004116;27;92983;-69
2023/06/02 07:29:00;;;;;;;2.60;1.33;;;19.60;71.90;19.90;100803.00;;;;5009089;27;121922;-67
2023/06/02 07:31:26;;;;;;;1.60;1.20;;;19.70;71.80;20.00;100812.00;;;;5002729;27;124160;-68
2023/06/02 07:33:52;;;;;;;4.80;2.10;;;19.90;70.80;19.90;100806.00;;;;5009055;27;109491;-67
2023/06/02 07:36:17;;;;;;;3.70;2.33;;;19.80;69.80;19.70;100806.00;;;;5005142;27;109026;-69
2023/06/02 07:38:43;;;;;;;1.52;1.33;;;19.70;70.10;19.70;100811.00;;;;5007485;27;121729;-68
2023/06/02 07:41:09;;;;;;;2.00;1.20;;;19.60;70.60;19.80;100820.00;;;;5006781;27;93712;-67
2023/06/02 07:43:35;;;;;;;4.55;1.60;;;19.70;70.20;19.80;100821.00;;;;5008851;27;94647;-70
2023/06/02 07:46:01;;;;;;;6.50;2.25;;;19.70;70.10;20.00;100829.00;;;;5004117;27;107970;-70
2023/06/02 07:48:26;;;;;;;6.65;1.65;;;19.80;70.20;20.30;100828.00;;;;5004845;27;93028;-70
2023/06/02 07:50:52;;;;;;;2.85;2.03;;;20.00;70.20;20.60;100828.00;;;;5001272;27;121303;-67
2023/06/02 07:53:18;;;;;;;4.10;1.85;;;20.30;69.70;20.90;100829.00;;;;5002080;27;110541;-70
2023/06/02 07:55:45;;;;;;;2.50;1.35;;;20.60;68.80;21.20;100835.00;;;;5004767;27;109308;-69
2023/06/02 07:58:10;;;;;;;4.43;1.73;;;20.90;68.10;21.40;100843.00;;;;5007645;27;93197;-68
2023/06/02 08:00:38;;;;;;;2.53;1.75;;;21.20;67.00;21.70;100844.00;;;;5006999;27;93014;-67
2023/06/02 08:03:04;;;;;;;5.45;1.98;;;21.50;66.00;22.00;100851.00;;;;5007103;27;92753;-68
2023/06/02 08:05:30;;;;;;;2.78;2.00;;;21.70;65.20;22.10;100848.00;;;;5008329;27;92804;-68
2023/06/02 08:07:56;;;;;;;2.58;2.17;;;21.90;64.70;22.30;100831.00;;;;5005598;27;115826;-69
2023/06/02 08:10:21;;;;;;;7.05;2.05;;;22.00;63.60;22.50;100835.00;;;;5014307;27;93821;-69
2023/06/02 08:12:47;;;;;;;2.50;1.40;;;22.20;62.80;22.70;100832.00;;;;5006448;27;109510;-67
2023/06/02 08:15:13;;;;;;;1.45;1.13;;;22.40;62.10;23.00;100831.00;;;;5006573;27;107328;-68
2023/06/02 08:17:38;;;;;;;4.13;1.75;;;22.70;61.60;23.10;100836.00;;;;4991340;27;122046;-68
2023/06/02 08:20:06;;;;;;;6.25;1.67;;;22.90;59.70;23.10;100829.00;;;;5011310;27;122174;-69
2023/06/02 08:22:32;;;;;;;10.75;1.77;;;22.90;58.80;23.10;100836.00;;;;5011260;27;93369;-68
2023/06/02 08:24:58;;;;;;;1.58;1.20;;;23.00;58.80;23.10;100826.00;;;;5010144;27;92353;-69
2023/06/02 08:27:24;;;;;;;3.20;1.88;;;23.00;57.70;23.10;100826.00;;;;4995256;27;93984;-67
2023/06/02 08:29:51;;;;;;;2.97;1.73;;;23.00;57.70;23.10;100823.00;;;;5018979;27;93176;-68
2023/06/02 08:32:22;;;;;;;2.75;1.20;;;23.00;57.70;23.20;100821.00;;;;5013664;27;94181;-68
2023/06/02 08:34:54;;;;;;;2.00;1.38;;;23.10;57.60;23.30;100818.00;;;;5012730;27;92890;-68
2023/06/02 08:37:20;;;;;;;4.78;1.30;;;23.20;57.20;23.50;100822.00;;;;5009048;27;94475;-68
2023/06/02 08:39:49;;;;;;;2.38;1.10;;;23.30;57.10;23.60;100814.00;;;;5005945;27;113992;-68
2023/06/02 08:42:16;;;;;;;2.25;1.08;;;23.40;56.80;23.80;100818.00;;;;5008899;27;93169;-71
2023/06/02 08:44:43;;;;;;;2.55;1.60;;;23.60;56.60;24.00;100822.00;;;;5000004;27;92758;-69
2023/06/02 08:47:11;;;;;;;3.00;1.60;;;23.70;56.10;24.00;100823.00;;;;5006048;27;106961;-67
2023/06/02 08:49:46;;;;;;;1.83;1.67;;;23.80;54.90;23.70;100824.00;;;;5009206;27;116388;-69
2023/06/02 08:52:20;;;;;;;6.00;1.73;;;23.70;54.70;23.50;100838.00;;;;5009311;27;93223;-69
2023/06/02 08:54:46;;;;;;;6.30;1.65;;;23.50;54.80;23.30;100832.00;;;;5006859;27;95514;-67
2023/06/02 08:57:16;;;;;;;3.22;1.77;;;23.30;54.90;23.10;100839.00;;;;4992455;27;99496;-68
2023/06/02 08:59:44;;;;;;;2.75;1.50;;;23.20;54.90;23.00;100835.00;;;;5005586;27;93870;-68
2023/06/02 09:02:10;;;;;;;4.63;1.27;;;23.00;55.30;23.00;100839.00;;;;5005948;27;92927;-68
2023/06/02 09:04:35;;;;;;;1.98;1.23;;;22.90;56.00;23.10;100839.00;;;;5008624;27;92991;-68
2023/06/02 09:07:13;;;;;;;3.60;1.00;;;22.90;55.20;23.10;100834.00;;;;5006584;27;96264;-68
2023/06/02 09:09:40;;;;;;;3.97;1.77;;;22.90;54.90;23.20;100833.00;;;;4990335;27;94049;-69
2023/06/02 09:12:08;;;;;;;16.88;1.77;;;23.00;54.90;23.30;100843.00;;;;5009993;27;94015;-69
2023/06/02 09:14:35;;;;;;;2.58;0.82;;;23.00;54.60;23.20;100837.00;;;;5008126;27;92360;-68
2023/06/02 09:17:00;;;;;;;2.63;0.88;;;23.00;54.60;23.30;100829.00;;;;5008572;27;111041;-68
2023/06/02 09:19:26;;;;;;;5.40;1.55;;;23.00;54.70;23.60;100828.00;;;;5006972;27;122581;-70
2023/06/02 09:21:52;;;;;;;1.48;0.82;;;23.30;54.80;24.00;100831.00;;;;5008995;27;93682;-68
2023/06/02 09:24:32;;;;;;;4.05;1.15;;;23.40;54.20;24.20;100837.00;;;;4990406;27;92968;-69
2023/06/02 09:26:57;;;;;;;2.97;1.30;;;23.80;53.30;24.20;100836.00;;;;5009894;27;93957;-68
2023/06/02 09:29:23;;;;;;;1.65;0.95;;;23.90;52.90;24.20;100831.00;;;;4997249;27;98264;-68
2023/06/02 09:31:58;;;;;;;4.50;1.70;;;23.90;52.80;24.30;100838.00;;;;5005451;27;110656;-68
2023/06/02 09:34:34;;;;;;;1.92;1.48;;;24.00;52.70;24.30;100834.00;;;;4996493;27;93070;-68
2023/06/02 09:37:17;;;;;;;2.60;1.38;;;24.00;52.20;24.30;100833.00;;;;4996789;27;93191;-68
2023/06/02 09:39:52;;;;;;;1.70;1.60;;;24.00;52.40;24.50;100833.00;;;;4988541;27;94691;-70
2023/06/02 09:42:19;;;;;;;5.03;1.63;;;24.10;52.30;24.50;100853.00;;;;4996431;27;93230;-68
2023/06/02 09:45:05;;;;;;;1.80;1.20;;;24.20;52.00;24.30;100851.00;;;;5007380;27;92896;-68
2023/06/02 09:47:41;;;;;;;4.72;1.65;;;24.10;52.10;24.20;100854.00;;;;4992601;27;94190;-68
2023/06/02 09:50:07;;;;;;;3.88;2.05;;;24.00;52.40;23.90;100857.00;;;;5004527;27;118441;-68
2023/06/02 09:52:33;;;;;;;3.15;1.30;;;23.80;52.50;23.70;100862.00;;;;5006687;27;102649;-68
2023/06/02 09:54:59;;;;;;;3.50;1.60;;;23.60;52.60;23.50;100866.00;;;;4991228;27;108378;-69
2023/06/02 09:57:25;;;;;;;3.78;1.35;;;23.30;52.60;23.30;100869.00;;;;5007838;27;92827;-68
2023/06/02 09:59:51;;;;;;;1.20;1.00;;;23.20;52.90;23.20;100863.00;;;;5008231;27;93061;-68
2023/06/02 10:02:17;;;;;;;2.50;0.80;;;23.00;53.00;23.10;100863.00;;;;5004002;27;110833;-69
2023/06/02 10:04:45;;;;;;;0.82;0.75;;;22.90;53.00;23.20;100859.00;;;;4987681;27;107957;-69
2023/06/02 10:07:54;;;;;;;1.83;1.73;;;22.90;52.90;23.30;100858.00;;;;5007166;27;93680;-68
2023/06/02 10:10:44;;;;;;;2.53;1.25;;;23.00;52.30;23.40;100865.00;;;;4992088;27;94078;-69
2023/06/02 10:13:19;;;;;;;1.02;0.80;;;23.10;52.10;23.50;100868.00;;;;4991163;27;99620;-68
2023/06/02 10:16:09;;;;;;;2.45;1.08;;;23.20;52.00;23.50;100874.00;;;;4999656;27;92980;-69
2023/06/02 10:19:11;;;;;;;1.05;0.80;;;23.20;52.20;23.20;100882.00;;;;4998922;27;93679;-68
2023/06/02 10:22:12;;;;;;;2.70;0.98;;;23.00;52.40;22.80;100877.00;;;;4991040;27;94266;-67
2023/06/02 10:25:06;;;;;;;5.55;1.00;;;22.70;52.90;22.40;100885.00;;;;4990695;27;93031;-69
2023/06/02 10:27:36;;;;;;;3.28;1.67;;;22.40;53.30;22.10;100882.00;;;;5007847;27;93114;-68
2023/06/02 10:30:03;;;;;;;15.25;1.60;;;22.10;53.90;21.80;100881.00;;;;5006140;27;93950;-68
2023/06/02 10:32:33;;;;;;;9.93;2.28;;;21.80;54.40;21.60;100890.00;;;;4993493;27;110304;-69
2023/06/02 10:35:00;;;;;;;3.38;1.25;;;21.50;55.00;21.50;100877.00;;;;4989531;27;93133;-70
2023/06/02 10:37:26;;;;;;;3.65;1.55;;;21.40;55.50;21.30;100884.00;;;;4991406;27;92774;-67
2023/06/02 10:39:54;;;;;;;3.63;1.60;;;21.20;55.90;21.30;100888.00;;;;5007948;27;110613;-68
2023/06/02 10:42:26;;;;;;;3.80;1.58;;;21.10;56.50;21.30;100895.00;;;;5009307;27;94757;-68
2023/06/02 10:45:13;;;;;;;2.70;1.25;;;21.10;56.60;21.40;100892.00;;;;5012473;27;92897;-68
2023/06/02 10:47:38;;;;;;;7.18;1.50;;;21.20;56.80;21.50;100885.00;;;;5006773;27;93610;-67